Terminal Aerodrome Forecast
Issued by NWS Sterling, VA

Current Version | Previous Version | Graphics & Text | Print | Product List | Glossary On
Versions: 1 2 3 4 5 6 7 8 9 10 11 12 13 14 15 16 17 18 19 20 21 22
000
FTUS41 KLWX 191132
TAFIAD
TAF
KIAD 191132Z 1912/2018 27010KT P6SM -SHRA FEW050 BKN080
     FM191400 28014G25KT P6SM BKN040
     FM191600 29017G34KT P6SM OVC040
     FM191700 30018G37KT P6SM BKN040
     FM192200 31019G36KT P6SM SCT050
     FM200100 31016G29KT P6SM SKC
     FM200500 31011G22KT P6SM SKC=

USA.gov is the U.S. government's official web portal to all federal, state and local government web resources and services.